sensor_id;sensor_type;location;lat;lon;timestamp;temperature;humidity
83146;DHT22;73037;51.110;4.706;2023-09-30T13:45:07;26.10;57.30
83146;DHT22;73037;51.110;4.706;2023-09-30T13:47:33;24.80;58.20
83146;DHT22;73037;51.110;4.706;2023-09-30T13:50:01;23.90;60.00
83146;DHT22;73037;51.110;4.706;2023-09-30T13:52:29;25.40;58.00
83146;DHT22;73037;51.110;4.706;2023-09-30T13:54:55;25.80;57.70
83146;DHT22;73037;51.110;4.706;2023-09-30T13:57:21;25.70;53.90
83146;DHT22;73037;51.110;4.706;2023-09-30T13:59:47;25.20;52.00
83146;DHT22;73037;51.110;4.706;2023-09-30T14:06:21;24.40;53.70
83146;DHT22;73037;51.110;4.706;2023-09-30T14:08:47;23.90;55.10
83146;DHT22;73037;51.110;4.706;2023-09-30T15:50:53;20.50;62.90
83146;DHT22;73037;51.110;4.706;2023-09-30T15:53:19;20.30;62.70
83146;DHT22;73037;51.110;4.706;2023-09-30T15:55:45;20.00;63.00
83146;DHT22;73037;51.110;4.706;2023-09-30T15:58:11;19.70;64.10
83146;DHT22;73037;51.110;4.706;2023-09-30T16:00:39;19.50;64.30
83146;DHT22;73037;51.110;4.706;2023-09-30T16:03:06;19.30;64.90
83146;DHT22;73037;51.110;4.706;2023-09-30T16:05:37;19.20;65.50
83146;DHT22;73037;51.110;4.706;2023-09-30T16:08:07;19.10;66.70
83146;DHT22;73037;51.110;4.706;2023-09-30T16:10:34;18.90;66.80
83146;DHT22;73037;51.110;4.706;2023-09-30T16:13:02;18.80;67.30
83146;DHT22;73037;51.110;4.706;2023-09-30T16:15:27;18.80;67.10
83146;DHT22;73037;51.110;4.706;2023-09-30T16:17:54;18.80;66.80
83146;DHT22;73037;51.110;4.706;2023-09-30T16:20:20;18.80;66.90
83146;DHT22;73037;51.110;4.706;2023-09-30T16:22:53;18.80;66.80
83146;DHT22;73037;51.110;4.706;2023-09-30T16:25:19;18.70;67.10
83146;DHT22;73037;51.110;4.706;2023-09-30T16:27:49;18.60;67.60
83146;DHT22;73037;51.110;4.706;2023-09-30T16:30:15;18.40;67.90
83146;DHT22;73037;51.110;4.706;2023-09-30T16:32:41;18.30;68.10
83146;DHT22;73037;51.110;4.706;2023-09-30T16:35:08;18.20;68.40
83146;DHT22;73037;51.110;4.706;2023-09-30T16:37:34;18.10;68.60
83146;DHT22;73037;51.110;4.706;2023-09-30T16:40:00;18.10;68.40
83146;DHT22;73037;51.110;4.706;2023-09-30T16:42:26;18.00;68.10
83146;DHT22;73037;51.110;4.706;2023-09-30T16:44:59;18.00;68.30
83146;DHT22;73037;51.110;4.706;2023-09-30T16:47:25;17.90;68.50
83146;DHT22;73037;51.110;4.706;2023-09-30T16:49:50;17.80;68.80
83146;DHT22;73037;51.110;4.706;2023-09-30T16:52:16;17.70;69.00
83146;DHT22;73037;51.110;4.706;2023-09-30T16:54:42;17.50;69.50
83146;DHT22;73037;51.110;4.706;2023-09-30T16:57:07;17.50;69.10
83146;DHT22;73037;51.110;4.706;2023-09-30T16:59:33;17.40;69.50
83146;DHT22;73037;51.110;4.706;2023-09-30T17:01:59;17.30;70.30
83146;DHT22;73037;51.110;4.706;2023-09-30T17:04:25;17.20;70.30
83146;DHT22;73037;51.110;4.706;2023-09-30T17:06:51;17.10;70.00
83146;DHT22;73037;51.110;4.706;2023-09-30T17:09:17;17.00;70.10
83146;DHT22;73037;51.110;4.706;2023-09-30T17:11:43;17.00;70.20
83146;DHT22;73037;51.110;4.706;2023-09-30T17:14:09;16.90;70.30
83146;DHT22;73037;51.110;4.706;2023-09-30T17:16:35;16.80;70.50
83146;DHT22;73037;51.110;4.706;2023-09-30T17:19:00;16.70;70.80
83146;DHT22;73037;51.110;4.706;2023-09-30T17:21:27;16.70;70.90
83146;DHT22;73037;51.110;4.706;2023-09-30T17:23:52;16.60;71.20
83146;DHT22;73037;51.110;4.706;2023-09-30T17:26:18;16.50;71.50
83146;DHT22;73037;51.110;4.706;2023-09-30T17:28:44;16.40;71.80
83146;DHT22;73037;51.110;4.706;2023-09-30T17:31:10;16.40;71.80
83146;DHT22;73037;51.110;4.706;2023-09-30T17:33:37;16.40;71.80
83146;DHT22;73037;51.110;4.706;2023-09-30T17:36:05;16.30;72.00
83146;DHT22;73037;51.110;4.706;2023-09-30T17:38:32;16.20;72.00
83146;DHT22;73037;51.110;4.706;2023-09-30T17:41:02;16.10;72.00
83146;DHT22;73037;51.110;4.706;2023-09-30T17:43:28;16.00;72.30
83146;DHT22;73037;51.110;4.706;2023-09-30T17:45:54;16.00;72.50
83146;DHT22;73037;51.110;4.706;2023-09-30T17:48:20;16.00;72.30
83146;DHT22;73037;51.110;4.706;2023-09-30T17:50:48;15.90;72.30
83146;DHT22;73037;51.110;4.706;2023-09-30T17:53:14;15.80;72.70
83146;DHT22;73037;51.110;4.706;2023-09-30T17:55:40;15.80;72.50
83146;DHT22;73037;51.110;4.706;2023-09-30T17:58:06;15.90;72.50
83146;DHT22;73037;51.110;4.706;2023-09-30T18:00:33;16.00;72.50
83146;DHT22;73037;51.110;4.706;2023-09-30T18:02:59;16.00;72.80
83146;DHT22;73037;51.110;4.706;2023-09-30T18:05:25;16.00;72.70
83146;DHT22;73037;51.110;4.706;2023-09-30T18:07:51;16.10;72.70
83146;DHT22;73037;51.110;4.706;2023-09-30T18:10:17;16.10;72.40
83146;DHT22;73037;51.110;4.706;2023-09-30T18:12:46;16.10;72.10
83146;DHT22;73037;51.110;4.706;2023-09-30T18:15:12;16.10;71.60
83146;DHT22;73037;51.110;4.706;2023-09-30T18:17:38;16.10;71.70
83146;DHT22;73037;51.110;4.706;2023-09-30T18:20:07;16.10;71.50
83146;DHT22;73037;51.110;4.706;2023-09-30T18:22:34;16.10;71.70
83146;DHT22;73037;51.110;4.706;2023-09-30T18:25:05;16.10;71.50
83146;DHT22;73037;51.110;4.706;2023-09-30T18:27:32;16.00;71.50
83146;DHT22;73037;51.110;4.706;2023-09-30T18:29:58;15.90;72.00
83146;DHT22;73037;51.110;4.706;2023-09-30T18:32:23;15.80;72.30
83146;DHT22;73037;51.110;4.706;2023-09-30T18:34:49;15.60;72.30
83146;DHT22;73037;51.110;4.706;2023-09-30T18:37:21;15.50;72.70
83146;DHT22;73037;51.110;4.706;2023-09-30T18:39:49;15.50;73.30
83146;DHT22;73037;51.110;4.706;2023-09-30T18:42:16;15.40;72.90
83146;DHT22;73037;51.110;4.706;2023-09-30T18:44:42;15.40;73.20
83146;DHT22;73037;51.110;4.706;2023-09-30T18:47:08;15.30;73.30
83146;DHT22;73037;51.110;4.706;2023-09-30T18:49:33;15.30;73.50
83146;DHT22;73037;51.110;4.706;2023-09-30T18:52:00;15.10;73.40
83146;DHT22;73037;51.110;4.706;2023-09-30T18:54:29;15.00;73.70
83146;DHT22;73037;51.110;4.706;2023-09-30T18:56:55;15.00;73.50
83146;DHT22;73037;51.110;4.706;2023-09-30T18:59:22;14.90;73.70
83146;DHT22;73037;51.110;4.706;2023-09-30T19:01:51;14.90;73.70
83146;DHT22;73037;51.110;4.706;2023-09-30T19:04:17;14.80;73.60
83146;DHT22;73037;51.110;4.706;2023-09-30T19:06:44;14.70;73.60
83146;DHT22;73037;51.110;4.706;2023-09-30T19:09:13;14.70;73.80
83146;DHT22;73037;51.110;4.706;2023-09-30T19:11:39;14.80;73.30
83146;DHT22;73037;51.110;4.706;2023-09-30T19:14:04;14.70;73.00
83146;DHT22;73037;51.110;4.706;2023-09-30T19:16:33;14.60;73.40
83146;DHT22;73037;51.110;4.706;2023-09-30T19:19:00;14.50;73.60
83146;DHT22;73037;51.110;4.706;2023-09-30T19:21:26;14.50;73.50
83146;DHT22;73037;51.110;4.706;2023-09-30T19:23:54;14.40;73.50
83146;DHT22;73037;51.110;4.706;2023-09-30T19:26:20;14.30;73.60
83146;DHT22;73037;51.110;4.706;2023-09-30T19:28:47;14.30;73.70
83146;DHT22;73037;51.110;4.706;2023-09-30T19:31:15;14.20;73.20
83146;DHT22;73037;51.110;4.706;2023-09-30T19:33:42;14.10;74.00
83146;DHT22;73037;51.110;4.706;2023-09-30T19:36:09;14.10;74.10
83146;DHT22;73037;51.110;4.706;2023-09-30T19:38:36;14.00;74.30
83146;DHT22;73037;51.110;4.706;2023-09-30T19:41:02;14.00;74.10
83146;DHT22;73037;51.110;4.706;2023-09-30T19:43:28;14.00;73.60
83146;DHT22;73037;51.110;4.706;2023-09-30T19:46:01;13.90;74.20
83146;DHT22;73037;51.110;4.706;2023-09-30T19:48:28;13.90;74.40
83146;DHT22;73037;51.110;4.706;2023-09-30T19:50:54;13.90;74.00
83146;DHT22;73037;51.110;4.706;2023-09-30T19:53:19;13.90;74.40
83146;DHT22;73037;51.110;4.706;2023-09-30T19:55:46;13.90;74.20
83146;DHT22;73037;51.110;4.706;2023-09-30T19:58:14;13.90;74.00
83146;DHT22;73037;51.110;4.706;2023-09-30T20:00:39;13.80;73.80
83146;DHT22;73037;51.110;4.706;2023-09-30T20:03:06;13.70;73.80
83146;DHT22;73037;51.110;4.706;2023-09-30T20:05:32;13.60;74.10
83146;DHT22;73037;51.110;4.706;2023-09-30T20:07:57;13.60;74.00
83146;DHT22;73037;51.110;4.706;2023-09-30T20:10:23;13.50;74.40
83146;DHT22;73037;51.110;4.706;2023-09-30T20:12:49;13.40;74.30
83146;DHT22;73037;51.110;4.706;2023-09-30T20:15:16;13.40;74.70
83146;DHT22;73037;51.110;4.706;2023-09-30T20:17:41;13.50;75.00
83146;DHT22;73037;51.110;4.706;2023-09-30T20:20:07;13.50;74.70
83146;DHT22;73037;51.110;4.706;2023-09-30T20:22:41;13.50;74.20
83146;DHT22;73037;51.110;4.706;2023-09-30T20:25:07;13.50;74.10
83146;DHT22;73037;51.110;4.706;2023-09-30T20:27:33;13.50;74.30
83146;DHT22;73037;51.110;4.706;2023-09-30T20:29:59;13.50;74.50
83146;DHT22;73037;51.110;4.706;2023-09-30T20:32:27;13.50;74.20
83146;DHT22;73037;51.110;4.706;2023-09-30T20:34:53;13.50;74.10
83146;DHT22;73037;51.110;4.706;2023-09-30T20:37:19;13.40;73.80
83146;DHT22;73037;51.110;4.706;2023-09-30T20:39:44;13.40;74.60
83146;DHT22;73037;51.110;4.706;2023-09-30T20:42:10;13.40;75.20
83146;DHT22;73037;51.110;4.706;2023-09-30T20:44:36;13.40;75.40
83146;DHT22;73037;51.110;4.706;2023-09-30T20:47:02;13.30;74.60
83146;DHT22;73037;51.110;4.706;2023-09-30T20:49:28;13.30;74.50
83146;DHT22;73037;51.110;4.706;2023-09-30T20:51:55;13.30;74.20
83146;DHT22;73037;51.110;4.706;2023-09-30T20:54:22;13.30;74.30
83146;DHT22;73037;51.110;4.706;2023-09-30T20:56:49;13.10;74.30
83146;DHT22;73037;51.110;4.706;2023-09-30T20:59:18;13.10;74.40
83146;DHT22;73037;51.110;4.706;2023-09-30T21:01:44;13.00;74.60
83146;DHT22;73037;51.110;4.706;2023-09-30T21:04:12;13.00;74.70
83146;DHT22;73037;51.110;4.706;2023-09-30T21:06:38;13.00;74.50
83146;DHT22;73037;51.110;4.706;2023-09-30T21:09:04;13.00;74.30
83146;DHT22;73037;51.110;4.706;2023-09-30T21:11:29;13.00;74.50
83146;DHT22;73037;51.110;4.706;2023-09-30T21:13:55;13.00;74.20
83146;DHT22;73037;51.110;4.706;2023-09-30T21:16:21;13.00;74.40
83146;DHT22;73037;51.110;4.706;2023-09-30T21:18:49;12.90;74.10
83146;DHT22;73037;51.110;4.706;2023-09-30T21:21:14;12.80;74.30
83146;DHT22;73037;51.110;4.706;2023-09-30T21:23:40;12.70;74.60
83146;DHT22;73037;51.110;4.706;2023-09-30T21:26:13;12.80;74.50
83146;DHT22;73037;51.110;4.706;2023-09-30T21:28:40;12.80;74.50
83146;DHT22;73037;51.110;4.706;2023-09-30T21:31:21;12.70;74.00
83146;DHT22;73037;51.110;4.706;2023-09-30T21:33:47;12.70;74.30
83146;DHT22;73037;51.110;4.706;2023-09-30T21:36:14;12.70;74.90
83146;DHT22;73037;51.110;4.706;2023-09-30T21:38:40;12.80;75.50
83146;DHT22;73037;51.110;4.706;2023-09-30T21:41:11;12.80;75.10
83146;DHT22;73037;51.110;4.706;2023-09-30T21:43:37;12.80;75.50
83146;DHT22;73037;51.110;4.706;2023-09-30T21:46:03;12.80;75.40
83146;DHT22;73037;51.110;4.706;2023-09-30T21:48:30;12.70;75.40
83146;DHT22;73037;51.110;4.706;2023-09-30T21:50:56;12.70;75.20
83146;DHT22;73037;51.110;4.706;2023-09-30T21:53:23;12.70;74.50
83146;DHT22;73037;51.110;4.706;2023-09-30T21:55:49;12.70;74.10
83146;DHT22;73037;51.110;4.706;2023-09-30T21:58:15;12.50;74.10
83146;DHT22;73037;51.110;4.706;2023-09-30T22:00:41;12.50;74.60
83146;DHT22;73037;51.110;4.706;2023-09-30T22:03:09;12.50;74.50
83146;DHT22;73037;51.110;4.706;2023-09-30T22:05:38;12.50;74.20
83146;DHT22;73037;51.110;4.706;2023-09-30T22:08:06;12.50;74.50
83146;DHT22;73037;51.110;4.706;2023-09-30T22:10:32;12.50;74.60
83146;DHT22;73037;51.110;4.706;2023-09-30T22:12:58;12.50;74.00
83146;DHT22;73037;51.110;4.706;2023-09-30T22:15:24;12.50;73.70
83146;DHT22;73037;51.110;4.706;2023-09-30T22:17:53;12.30;74.00
83146;DHT22;73037;51.110;4.706;2023-09-30T22:20:19;12.20;74.40
83146;DHT22;73037;51.110;4.706;2023-09-30T22:22:45;12.10;74.80
83146;DHT22;73037;51.110;4.706;2023-09-30T22:25:11;12.00;75.00
83146;DHT22;73037;51.110;4.706;2023-09-30T22:27:37;12.00;75.00
83146;DHT22;73037;51.110;4.706;2023-09-30T22:30:06;12.10;75.40
83146;DHT22;73037;51.110;4.706;2023-09-30T22:32:32;12.20;75.30
83146;DHT22;73037;51.110;4.706;2023-09-30T22:34:58;12.20;74.60
83146;DHT22;73037;51.110;4.706;2023-09-30T22:37:25;12.20;74.70
83146;DHT22;73037;51.110;4.706;2023-09-30T22:39:51;12.20;74.70
83146;DHT22;73037;51.110;4.706;2023-09-30T22:42:17;12.30;74.50
83146;DHT22;73037;51.110;4.706;2023-09-30T22:44:43;12.20;74.90
83146;DHT22;73037;51.110;4.706;2023-09-30T22:47:09;12.20;74.70
83146;DHT22;73037;51.110;4.706;2023-09-30T22:49:35;12.20;75.40
83146;DHT22;73037;51.110;4.706;2023-09-30T22:52:01;12.20;75.50
83146;DHT22;73037;51.110;4.706;2023-09-30T22:54:27;12.20;75.10
83146;DHT22;73037;51.110;4.706;2023-09-30T22:56:55;12.20;75.80
83146;DHT22;73037;51.110;4.706;2023-09-30T22:59:21;12.20;75.60
83146;DHT22;73037;51.110;4.706;2023-09-30T23:01:47;12.30;75.90
83146;DHT22;73037;51.110;4.706;2023-09-30T23:04:13;12.30;74.50
83146;DHT22;73037;51.110;4.706;2023-09-30T23:06:40;12.20;74.80
83146;DHT22;73037;51.110;4.706;2023-09-30T23:09:06;12.20;75.10
83146;DHT22;73037;51.110;4.706;2023-09-30T23:11:33;12.20;75.10
83146;DHT22;73037;51.110;4.706;2023-09-30T23:13:59;12.20;74.50
83146;DHT22;73037;51.110;4.706;2023-09-30T23:16:25;12.20;75.20
83146;DHT22;73037;51.110;4.706;2023-09-30T23:18:51;12.20;75.10
83146;DHT22;73037;51.110;4.706;2023-09-30T23:21:17;12.20;75.00
83146;DHT22;73037;51.110;4.706;2023-09-30T23:23:44;12.30;75.10
83146;DHT22;73037;51.110;4.706;2023-09-30T23:26:10;12.30;75.10
83146;DHT22;73037;51.110;4.706;2023-09-30T23:28:36;12.30;75.40
83146;DHT22;73037;51.110;4.706;2023-09-30T23:31:03;12.30;75.50
83146;DHT22;73037;51.110;4.706;2023-09-30T23:33:29;12.20;75.90
83146;DHT22;73037;51.110;4.706;2023-09-30T23:35:55;12.20;76.10
83146;DHT22;73037;51.110;4.706;2023-09-30T23:38:21;12.20;76.40
83146;DHT22;73037;51.110;4.706;2023-09-30T23:40:47;12.30;76.10
83146;DHT22;73037;51.110;4.706;2023-09-30T23:43:15;12.30;75.70
83146;DHT22;73037;51.110;4.706;2023-09-30T23:45:41;12.20;75.40
83146;DHT22;73037;51.110;4.706;2023-09-30T23:48:09;12.20;75.80
83146;DHT22;73037;51.110;4.706;2023-09-30T23:50:35;12.20;75.20
83146;DHT22;73037;51.110;4.706;2023-09-30T23:53:03;12.10;75.40
83146;DHT22;73037;51.110;4.706;2023-09-30T23:55:30;12.10;75.80
83146;DHT22;73037;51.110;4.706;2023-09-30T23:57:57;12.10;76.00
